sensor_id;sensor_type;location;lat;lon;timestamp;P1;durP1;ratioP1;P2;durP2;ratioP2
67869;SDS011;54673;52.262;6.830;2024-02-26T00:02:14;2.13;;;1.40;;
67869;SDS011;54673;52.262;6.830;2024-02-26T00:04:40;4.63;;;3.00;;
67869;SDS011;54673;52.262;6.830;2024-02-26T00:07:06;5.10;;;3.00;;
67869;SDS011;54673;52.262;6.830;2024-02-26T00:09:31;3.70;;;1.83;;
67869;SDS011;54673;52.262;6.830;2024-02-26T00:12:00;6.35;;;4.07;;
67869;SDS011;54673;52.262;6.830;2024-02-26T00:14:26;3.70;;;2.47;;
67869;SDS011;54673;52.262;6.830;2024-02-26T00:16:52;5.00;;;3.23;;
67869;SDS011;54673;52.262;6.830;2024-02-26T00:19:17;10.47;;;3.27;;
67869;SDS011;54673;52.262;6.830;2024-02-26T00:21:43;5.70;;;3.35;;
67869;SDS011;54673;52.262;6.830;2024-02-26T00:24:08;1.93;;;1.60;;
67869;SDS011;54673;52.262;6.830;2024-02-26T00:26:34;3.73;;;2.83;;
67869;SDS011;54673;52.262;6.830;2024-02-26T00:28:59;4.10;;;2.72;;
67869;SDS011;54673;52.262;6.830;2024-02-26T00:31:25;2.97;;;2.47;;
67869;SDS011;54673;52.262;6.830;2024-02-26T00:33:50;6.87;;;4.40;;
67869;SDS011;54673;52.262;6.830;2024-02-26T00:36:16;6.18;;;3.85;;
67869;SDS011;54673;52.262;6.830;2024-02-26T00:38:43;6.55;;;4.32;;
67869;SDS011;54673;52.262;6.830;2024-02-26T00:41:11;7.45;;;3.78;;
67869;SDS011;54673;52.262;6.830;2024-02-26T00:43:36;6.17;;;3.30;;
67869;SDS011;54673;52.262;6.830;2024-02-26T00:46:04;4.65;;;2.88;;
67869;SDS011;54673;52.262;6.830;2024-02-26T00:48:30;5.63;;;3.50;;
67869;SDS011;54673;52.262;6.830;2024-02-26T00:50:55;4.33;;;3.03;;
67869;SDS011;54673;52.262;6.830;2024-02-26T00:53:21;2.20;;;1.67;;
67869;SDS011;54673;52.262;6.830;2024-02-26T00:55:46;5.23;;;3.70;;
67869;SDS011;54673;52.262;6.830;2024-02-26T00:58:12;8.00;;;3.60;;
67869;SDS011;54673;52.262;6.830;2024-02-26T01:00:38;6.43;;;4.13;;
67869;SDS011;54673;52.262;6.830;2024-02-26T01:03:03;8.77;;;4.00;;
67869;SDS011;54673;52.262;6.830;2024-02-26T01:05:29;4.90;;;2.97;;
67869;SDS011;54673;52.262;6.830;2024-02-26T01:07:55;5.50;;;3.73;;
67869;SDS011;54673;52.262;6.830;2024-02-26T01:10:20;5.22;;;3.70;;
67869;SDS011;54673;52.262;6.830;2024-02-26T01:12:46;5.85;;;2.70;;
67869;SDS011;54673;52.262;6.830;2024-02-26T01:15:12;5.70;;;3.53;;
67869;SDS011;54673;52.262;6.830;2024-02-26T01:17:38;5.75;;;3.72;;
67869;SDS011;54673;52.262;6.830;2024-02-26T01:20:04;8.47;;;4.13;;
67869;SDS011;54673;52.262;6.830;2024-02-26T01:22:30;6.20;;;3.72;;
67869;SDS011;54673;52.262;6.830;2024-02-26T01:24:56;7.37;;;3.67;;
67869;SDS011;54673;52.262;6.830;2024-02-26T01:27:21;5.50;;;3.28;;
67869;SDS011;54673;52.262;6.830;2024-02-26T01:29:51;5.53;;;3.60;;
67869;SDS011;54673;52.262;6.830;2024-02-26T01:32:17;7.10;;;3.70;;
67869;SDS011;54673;52.262;6.830;2024-02-26T01:34:43;5.67;;;2.77;;
67869;SDS011;54673;52.262;6.830;2024-02-26T01:37:08;6.38;;;3.92;;
67869;SDS011;54673;52.262;6.830;2024-02-26T01:39:34;6.83;;;2.77;;
67869;SDS011;54673;52.262;6.830;2024-02-26T01:41:59;4.85;;;3.45;;
67869;SDS011;54673;52.262;6.830;2024-02-26T01:44:26;5.10;;;3.22;;
67869;SDS011;54673;52.262;6.830;2024-02-26T01:46:51;7.20;;;3.22;;
67869;SDS011;54673;52.262;6.830;2024-02-26T01:49:18;8.50;;;4.05;;
67869;SDS011;54673;52.262;6.830;2024-02-26T01:51:43;7.63;;;4.68;;
67869;SDS011;54673;52.262;6.830;2024-02-26T01:54:09;5.45;;;3.03;;
67869;SDS011;54673;52.262;6.830;2024-02-26T01:56:36;6.80;;;3.80;;
67869;SDS011;54673;52.262;6.830;2024-02-26T01:59:03;4.10;;;2.90;;
67869;SDS011;54673;52.262;6.830;2024-02-26T02:01:30;4.05;;;2.92;;
67869;SDS011;54673;52.262;6.830;2024-02-26T02:03:58;5.65;;;3.42;;
67869;SDS011;54673;52.262;6.830;2024-02-26T02:06:24;7.30;;;3.65;;
67869;SDS011;54673;52.262;6.830;2024-02-26T02:08:50;5.68;;;3.20;;
67869;SDS011;54673;52.262;6.830;2024-02-26T02:11:16;4.67;;;2.43;;
67869;SDS011;54673;52.262;6.830;2024-02-26T02:13:42;5.97;;;3.05;;
67869;SDS011;54673;52.262;6.830;2024-02-26T02:16:07;5.27;;;3.20;;
67869;SDS011;54673;52.262;6.830;2024-02-26T02:18:33;4.47;;;2.53;;
67869;SDS011;54673;52.262;6.830;2024-02-26T02:21:02;5.30;;;2.67;;
67869;SDS011;54673;52.262;6.830;2024-02-26T02:23:28;1.45;;;1.02;;
67869;SDS011;54673;52.262;6.830;2024-02-26T02:25:53;3.80;;;2.63;;
67869;SDS011;54673;52.262;6.830;2024-02-26T02:28:21;9.27;;;3.60;;
67869;SDS011;54673;52.262;6.830;2024-02-26T02:30:47;6.07;;;3.33;;
67869;SDS011;54673;52.262;6.830;2024-02-26T02:33:13;5.32;;;2.05;;
67869;SDS011;54673;52.262;6.830;2024-02-26T02:35:40;6.27;;;3.20;;
67869;SDS011;54673;52.262;6.830;2024-02-26T02:38:06;5.40;;;3.40;;
67869;SDS011;54673;52.262;6.830;2024-02-26T02:40:32;3.20;;;2.25;;
67869;SDS011;54673;52.262;6.830;2024-02-26T02:42:57;3.72;;;2.58;;
67869;SDS011;54673;52.262;6.830;2024-02-26T02:45:23;4.38;;;3.20;;
67869;SDS011;54673;52.262;6.830;2024-02-26T02:47:49;5.10;;;3.25;;
67869;SDS011;54673;52.262;6.830;2024-02-26T02:50:14;3.80;;;2.53;;
67869;SDS011;54673;52.262;6.830;2024-02-26T02:52:40;3.67;;;2.50;;
67869;SDS011;54673;52.262;6.830;2024-02-26T02:55:06;2.25;;;1.55;;
67869;SDS011;54673;52.262;6.830;2024-02-26T02:57:31;3.97;;;2.47;;
67869;SDS011;54673;52.262;6.830;2024-02-26T02:59:58;4.05;;;2.45;;
67869;SDS011;54673;52.262;6.830;2024-02-26T03:02:23;3.97;;;1.97;;
67869;SDS011;54673;52.262;6.830;2024-02-26T03:04:51;5.32;;;2.50;;
67869;SDS011;54673;52.262;6.830;2024-02-26T03:07:17;3.50;;;2.23;;
67869;SDS011;54673;52.262;6.830;2024-02-26T03:09:43;2.33;;;2.00;;
67869;SDS011;54673;52.262;6.830;2024-02-26T03:12:08;4.63;;;2.50;;
67869;SDS011;54673;52.262;6.830;2024-02-26T03:14:34;4.15;;;2.47;;
67869;SDS011;54673;52.262;6.830;2024-02-26T03:17:00;2.77;;;1.77;;
67869;SDS011;54673;52.262;6.830;2024-02-26T03:19:25;3.33;;;2.03;;
67869;SDS011;54673;52.262;6.830;2024-02-26T03:21:51;10.55;;;2.40;;
67869;SDS011;54673;52.262;6.830;2024-02-26T03:24:16;3.80;;;2.40;;
67869;SDS011;54673;52.262;6.830;2024-02-26T03:26:42;3.13;;;2.40;;
67869;SDS011;54673;52.262;6.830;2024-02-26T03:29:08;4.78;;;2.70;;
67869;SDS011;54673;52.262;6.830;2024-02-26T03:31:33;4.67;;;2.17;;
67869;SDS011;54673;52.262;6.830;2024-02-26T03:33:59;2.25;;;1.58;;
67869;SDS011;54673;52.262;6.830;2024-02-26T03:36:24;3.03;;;2.00;;
67869;SDS011;54673;52.262;6.830;2024-02-26T03:38:50;3.80;;;1.73;;
67869;SDS011;54673;52.262;6.830;2024-02-26T03:41:16;4.17;;;2.13;;
67869;SDS011;54673;52.262;6.830;2024-02-26T03:43:41;3.17;;;2.20;;
67869;SDS011;54673;52.262;6.830;2024-02-26T03:46:07;3.47;;;2.35;;
67869;SDS011;54673;52.262;6.830;2024-02-26T03:48:34;4.23;;;1.77;;
67869;SDS011;54673;52.262;6.830;2024-02-26T03:51:00;3.78;;;2.28;;
67869;SDS011;54673;52.262;6.830;2024-02-26T03:53:25;2.23;;;1.50;;
67869;SDS011;54673;52.262;6.830;2024-02-26T03:55:51;3.75;;;1.63;;
67869;SDS011;54673;52.262;6.830;2024-02-26T03:58:17;6.77;;;2.90;;
67869;SDS011;54673;52.262;6.830;2024-02-26T04:00:43;4.03;;;2.65;;
67869;SDS011;54673;52.262;6.830;2024-02-26T04:03:09;4.17;;;2.10;;
67869;SDS011;54673;52.262;6.830;2024-02-26T04:05:34;4.55;;;2.40;;
67869;SDS011;54673;52.262;6.830;2024-02-26T04:08:00;3.13;;;2.30;;
67869;SDS011;54673;52.262;6.830;2024-02-26T04:10:26;3.53;;;2.42;;
67869;SDS011;54673;52.262;6.830;2024-02-26T04:12:51;7.25;;;3.60;;
67869;SDS011;54673;52.262;6.830;2024-02-26T04:15:17;5.70;;;3.03;;
67869;SDS011;54673;52.262;6.830;2024-02-26T04:17:42;4.15;;;2.83;;
67869;SDS011;54673;52.262;6.830;2024-02-26T04:20:12;6.50;;;2.97;;
67869;SDS011;54673;52.262;6.830;2024-02-26T04:22:39;5.95;;;2.92;;
67869;SDS011;54673;52.262;6.830;2024-02-26T04:25:04;4.10;;;2.57;;
67869;SDS011;54673;52.262;6.830;2024-02-26T04:27:30;6.55;;;3.10;;
67869;SDS011;54673;52.262;6.830;2024-02-26T04:29:55;4.50;;;2.80;;
67869;SDS011;54673;52.262;6.830;2024-02-26T04:32:21;4.90;;;3.10;;
67869;SDS011;54673;52.262;6.830;2024-02-26T04:34:47;5.57;;;2.95;;
67869;SDS011;54673;52.262;6.830;2024-02-26T04:37:13;6.47;;;2.60;;
67869;SDS011;54673;52.262;6.830;2024-02-26T04:39:38;6.53;;;3.15;;
67869;SDS011;54673;52.262;6.830;2024-02-26T04:42:04;4.75;;;2.95;;
67869;SDS011;54673;52.262;6.830;2024-02-26T04:44:29;5.40;;;2.10;;
67869;SDS011;54673;52.262;6.830;2024-02-26T04:46:55;5.53;;;3.58;;
67869;SDS011;54673;52.262;6.830;2024-02-26T04:49:21;6.78;;;4.07;;
67869;SDS011;54673;52.262;6.830;2024-02-26T04:51:47;5.47;;;3.58;;
67869;SDS011;54673;52.262;6.830;2024-02-26T04:54:13;4.57;;;3.47;;
67869;SDS011;54673;52.262;6.830;2024-02-26T04:56:38;2.33;;;1.75;;
67869;SDS011;54673;52.262;6.830;2024-02-26T04:59:04;1.90;;;1.47;;
67869;SDS011;54673;52.262;6.830;2024-02-26T05:01:30;4.03;;;2.42;;
67869;SDS011;54673;52.262;6.830;2024-02-26T05:03:55;5.90;;;3.33;;
67869;SDS011;54673;52.262;6.830;2024-02-26T05:06:21;4.35;;;2.75;;
67869;SDS011;54673;52.262;6.830;2024-02-26T05:08:46;5.88;;;3.33;;
67869;SDS011;54673;52.262;6.830;2024-02-26T05:11:12;6.93;;;4.00;;
67869;SDS011;54673;52.262;6.830;2024-02-26T05:13:37;6.63;;;3.25;;
67869;SDS011;54673;52.262;6.830;2024-02-26T05:16:03;4.45;;;2.45;;
67869;SDS011;54673;52.262;6.830;2024-02-26T05:18:29;5.43;;;3.20;;
67869;SDS011;54673;52.262;6.830;2024-02-26T05:20:54;4.43;;;2.90;;
67869;SDS011;54673;52.262;6.830;2024-02-26T05:23:20;4.33;;;2.70;;
67869;SDS011;54673;52.262;6.830;2024-02-26T05:25:46;2.83;;;1.90;;
67869;SDS011;54673;52.262;6.830;2024-02-26T05:28:12;5.13;;;3.42;;
67869;SDS011;54673;52.262;6.830;2024-02-26T05:30:40;4.68;;;2.83;;
67869;SDS011;54673;52.262;6.830;2024-02-26T05:33:06;4.90;;;3.10;;
67869;SDS011;54673;52.262;6.830;2024-02-26T05:35:32;4.32;;;2.85;;
67869;SDS011;54673;52.262;6.830;2024-02-26T05:37:57;4.47;;;2.63;;
67869;SDS011;54673;52.262;6.830;2024-02-26T05:40:23;5.90;;;2.50;;
67869;SDS011;54673;52.262;6.830;2024-02-26T05:42:48;5.47;;;2.58;;
67869;SDS011;54673;52.262;6.830;2024-02-26T05:45:14;8.43;;;3.10;;
67869;SDS011;54673;52.262;6.830;2024-02-26T05:47:39;4.10;;;2.45;;
67869;SDS011;54673;52.262;6.830;2024-02-26T05:50:08;3.00;;;2.03;;
67869;SDS011;54673;52.262;6.830;2024-02-26T05:52:35;3.75;;;1.90;;
67869;SDS011;54673;52.262;6.830;2024-02-26T05:55:05;3.73;;;2.27;;
67869;SDS011;54673;52.262;6.830;2024-02-26T05:57:31;5.03;;;2.50;;
67869;SDS011;54673;52.262;6.830;2024-02-26T05:59:58;5.32;;;3.05;;
67869;SDS011;54673;52.262;6.830;2024-02-26T06:02:28;5.60;;;3.13;;
67869;SDS011;54673;52.262;6.830;2024-02-26T06:04:54;3.50;;;2.42;;
67869;SDS011;54673;52.262;6.830;2024-02-26T06:07:19;2.77;;;1.97;;
67869;SDS011;54673;52.262;6.830;2024-02-26T06:09:45;3.13;;;1.70;;
67869;SDS011;54673;52.262;6.830;2024-02-26T06:12:10;2.20;;;1.38;;
67869;SDS011;54673;52.262;6.830;2024-02-26T06:14:36;2.63;;;1.63;;
67869;SDS011;54673;52.262;6.830;2024-02-26T06:17:01;5.40;;;3.08;;
67869;SDS011;54673;52.262;6.830;2024-02-26T06:19:27;3.85;;;1.98;;
67869;SDS011;54673;52.262;6.830;2024-02-26T06:21:53;4.97;;;3.37;;
67869;SDS011;54673;52.262;6.830;2024-02-26T06:24:18;4.90;;;1.80;;
67869;SDS011;54673;52.262;6.830;2024-02-26T06:26:45;3.92;;;2.67;;
67869;SDS011;54673;52.262;6.830;2024-02-26T06:29:11;3.10;;;1.90;;
67869;SDS011;54673;52.262;6.830;2024-02-26T06:31:37;4.60;;;2.50;;
67869;SDS011;54673;52.262;6.830;2024-02-26T06:34:02;5.97;;;3.33;;
67869;SDS011;54673;52.262;6.830;2024-02-26T06:36:28;4.28;;;2.90;;
67869;SDS011;54673;52.262;6.830;2024-02-26T06:38:54;4.50;;;3.27;;
67869;SDS011;54673;52.262;6.830;2024-02-26T06:41:19;7.85;;;4.20;;
67869;SDS011;54673;52.262;6.830;2024-02-26T06:43:45;3.87;;;2.67;;
67869;SDS011;54673;52.262;6.830;2024-02-26T06:46:11;5.75;;;3.70;;
67869;SDS011;54673;52.262;6.830;2024-02-26T06:48:36;7.10;;;3.77;;
67869;SDS011;54673;52.262;6.830;2024-02-26T06:51:02;6.57;;;3.93;;
67869;SDS011;54673;52.262;6.830;2024-02-26T06:53:28;5.40;;;2.70;;
67869;SDS011;54673;52.262;6.830;2024-02-26T06:55:54;6.40;;;3.80;;
67869;SDS011;54673;52.262;6.830;2024-02-26T06:58:19;4.22;;;2.47;;
67869;SDS011;54673;52.262;6.830;2024-02-26T07:00:45;6.87;;;3.73;;
67869;SDS011;54673;52.262;6.830;2024-02-26T07:03:11;7.05;;;4.38;;
67869;SDS011;54673;52.262;6.830;2024-02-26T07:05:38;5.97;;;3.33;;
67869;SDS011;54673;52.262;6.830;2024-02-26T07:08:04;7.10;;;3.65;;
67869;SDS011;54673;52.262;6.830;2024-02-26T07:10:30;5.03;;;3.17;;
67869;SDS011;54673;52.262;6.830;2024-02-26T07:12:55;9.57;;;4.60;;
67869;SDS011;54673;52.262;6.830;2024-02-26T07:15:21;6.78;;;3.75;;
67869;SDS011;54673;52.262;6.830;2024-02-26T07:17:46;9.07;;;5.37;;
67869;SDS011;54673;52.262;6.830;2024-02-26T07:20:14;7.40;;;4.10;;
67869;SDS011;54673;52.262;6.830;2024-02-26T07:22:39;12.97;;;4.77;;
67869;SDS011;54673;52.262;6.830;2024-02-26T07:25:07;6.47;;;3.85;;
67869;SDS011;54673;52.262;6.830;2024-02-26T07:27:33;8.23;;;4.17;;
67869;SDS011;54673;52.262;6.830;2024-02-26T07:30:00;6.57;;;4.30;;
67869;SDS011;54673;52.262;6.830;2024-02-26T07:32:25;6.60;;;3.93;;
67869;SDS011;54673;52.262;6.830;2024-02-26T07:34:51;10.80;;;4.07;;
67869;SDS011;54673;52.262;6.830;2024-02-26T07:37:17;5.97;;;3.63;;
67869;SDS011;54673;52.262;6.830;2024-02-26T07:39:42;7.43;;;4.33;;
67869;SDS011;54673;52.262;6.830;2024-02-26T07:42:08;4.63;;;2.83;;
67869;SDS011;54673;52.262;6.830;2024-02-26T07:44:33;8.20;;;4.67;;
67869;SDS011;54673;52.262;6.830;2024-02-26T07:46:59;5.63;;;3.35;;
67869;SDS011;54673;52.262;6.830;2024-02-26T07:49:24;13.75;;;7.28;;
67869;SDS011;54673;52.262;6.830;2024-02-26T07:51:50;9.73;;;5.47;;
67869;SDS011;54673;52.262;6.830;2024-02-26T07:54:16;13.93;;;6.97;;
67869;SDS011;54673;52.262;6.830;2024-02-26T07:56:42;5.10;;;2.90;;
67869;SDS011;54673;52.262;6.830;2024-02-26T07:59:07;9.55;;;5.38;;
67869;SDS011;54673;52.262;6.830;2024-02-26T08:01:34;14.25;;;6.28;;
67869;SDS011;54673;52.262;6.830;2024-02-26T08:04:00;14.55;;;6.13;;
67869;SDS011;54673;52.262;6.830;2024-02-26T08:06:25;8.50;;;5.05;;
67869;SDS011;54673;52.262;6.830;2024-02-26T08:08:51;10.23;;;5.17;;
67869;SDS011;54673;52.262;6.830;2024-02-26T08:11:17;10.70;;;5.25;;
67869;SDS011;54673;52.262;6.830;2024-02-26T08:13:42;9.33;;;4.40;;
67869;SDS011;54673;52.262;6.830;2024-02-26T08:16:08;11.68;;;5.25;;
67869;SDS011;54673;52.262;6.830;2024-02-26T08:18:34;12.05;;;5.15;;
67869;SDS011;54673;52.262;6.830;2024-02-26T08:20:59;13.70;;;5.80;;
67869;SDS011;54673;52.262;6.830;2024-02-26T08:23:25;11.17;;;6.17;;
67869;SDS011;54673;52.262;6.830;2024-02-26T08:25:51;10.70;;;5.38;;
67869;SDS011;54673;52.262;6.830;2024-02-26T08:28:16;13.07;;;6.37;;
67869;SDS011;54673;52.262;6.830;2024-02-26T08:30:43;9.70;;;4.68;;
67869;SDS011;54673;52.262;6.830;2024-02-26T08:33:08;9.83;;;5.53;;
67869;SDS011;54673;52.262;6.830;2024-02-26T08:35:35;7.60;;;4.55;;
67869;SDS011;54673;52.262;6.830;2024-02-26T08:38:01;4.13;;;2.50;;
67869;SDS011;54673;52.262;6.830;2024-02-26T08:40:26;8.82;;;4.43;;
67869;SDS011;54673;52.262;6.830;2024-02-26T08:42:52;8.27;;;4.17;;
67869;SDS011;54673;52.262;6.830;2024-02-26T08:45:17;12.30;;;5.83;;
67869;SDS011;54673;52.262;6.830;2024-02-26T08:47:44;10.45;;;5.13;;
67869;SDS011;54673;52.262;6.830;2024-02-26T08:50:10;11.13;;;5.80;;
67869;SDS011;54673;52.262;6.830;2024-02-26T08:52:37;5.53;;;2.85;;
67869;SDS011;54673;52.262;6.830;2024-02-26T08:55:03;13.18;;;5.80;;
67869;SDS011;54673;52.262;6.830;2024-02-26T08:57:29;6.63;;;4.17;;
67869;SDS011;54673;52.262;6.830;2024-02-26T08:59:58;9.02;;;4.45;;
67869;SDS011;54673;52.262;6.830;2024-02-26T09:02:23;9.10;;;5.27;;
67869;SDS011;54673;52.262;6.830;2024-02-26T09:04:49;10.75;;;5.72;;
67869;SDS011;54673;52.262;6.830;2024-02-26T09:07:18;10.07;;;5.10;;
67869;SDS011;54673;52.262;6.830;2024-02-26T09:09:44;6.47;;;3.75;;
67869;SDS011;54673;52.262;6.830;2024-02-26T09:12:09;10.33;;;5.00;;
67869;SDS011;54673;52.262;6.830;2024-02-26T09:14:35;14.70;;;5.80;;
67869;SDS011;54673;52.262;6.830;2024-02-26T09:17:00;11.02;;;5.75;;
67869;SDS011;54673;52.262;6.830;2024-02-26T09:19:26;11.90;;;5.57;;
67869;SDS011;54673;52.262;6.830;2024-02-26T09:21:52;11.30;;;6.00;;
67869;SDS011;54673;52.262;6.830;2024-02-26T09:24:22;7.15;;;3.15;;
67869;SDS011;54673;52.262;6.830;2024-02-26T09:26:48;12.13;;;5.00;;
67869;SDS011;54673;52.262;6.830;2024-02-26T09:29:14;13.60;;;6.53;;
67869;SDS011;54673;52.262;6.830;2024-02-26T09:31:39;14.33;;;6.17;;
67869;SDS011;54673;52.262;6.830;2024-02-26T09:34:06;15.70;;;6.85;;
67869;SDS011;54673;52.262;6.830;2024-02-26T09:36:33;17.52;;;7.65;;
67869;SDS011;54673;52.262;6.830;2024-02-26T09:38:59;12.87;;;5.80;;
67869;SDS011;54673;52.262;6.830;2024-02-26T09:41:25;12.23;;;5.13;;
67869;SDS011;54673;52.262;6.830;2024-02-26T09:43:53;14.87;;;6.73;;
67869;SDS011;54673;52.262;6.830;2024-02-26T09:46:21;11.75;;;5.38;;
67869;SDS011;54673;52.262;6.830;2024-02-26T09:48:47;16.20;;;6.20;;
67869;SDS011;54673;52.262;6.830;2024-02-26T09:51:13;9.87;;;5.17;;
67869;SDS011;54673;52.262;6.830;2024-02-26T09:53:39;17.67;;;8.15;;
67869;SDS011;54673;52.262;6.830;2024-02-26T09:56:08;17.77;;;7.37;;
67869;SDS011;54673;52.262;6.830;2024-02-26T09:58:36;19.25;;;8.05;;
67869;SDS011;54673;52.262;6.830;2024-02-26T10:01:02;12.18;;;5.97;;
67869;SDS011;54673;52.262;6.830;2024-02-26T10:03:34;7.90;;;3.90;;
67869;SDS011;54673;52.262;6.830;2024-02-26T10:06:05;19.92;;;8.55;;
67869;SDS011;54673;52.262;6.830;2024-02-26T10:08:32;21.30;;;8.43;;
67869;SDS011;54673;52.262;6.830;2024-02-26T10:10:58;9.55;;;4.70;;
67869;SDS011;54673;52.262;6.830;2024-02-26T10:13:24;15.07;;;5.90;;
67869;SDS011;54673;52.262;6.830;2024-02-26T10:15:50;15.13;;;6.60;;
67869;SDS011;54673;52.262;6.830;2024-02-26T10:18:16;14.95;;;6.80;;
67869;SDS011;54673;52.262;6.830;2024-02-26T10:20:41;17.90;;;8.10;;
67869;SDS011;54673;52.262;6.830;2024-02-26T10:23:07;19.00;;;7.63;;
67869;SDS011;54673;52.262;6.830;2024-02-26T10:25:32;21.80;;;9.45;;
67869;SDS011;54673;52.262;6.830;2024-02-26T10:28:01;9.83;;;4.57;;
67869;SDS011;54673;52.262;6.830;2024-02-26T10:30:27;17.13;;;7.90;;
67869;SDS011;54673;52.262;6.830;2024-02-26T10:32:53;18.70;;;8.10;;
67869;SDS011;54673;52.262;6.830;2024-02-26T10:35:20;15.73;;;6.97;;
67869;SDS011;54673;52.262;6.830;2024-02-26T10:37:46;21.00;;;8.53;;
67869;SDS011;54673;52.262;6.830;2024-02-26T10:40:13;12.95;;;5.82;;
67869;SDS011;54673;52.262;6.830;2024-02-26T10:42:39;19.05;;;7.72;;
67869;SDS011;54673;52.262;6.830;2024-02-26T10:45:06;19.50;;;8.50;;
67869;SDS011;54673;52.262;6.830;2024-02-26T10:47:34;18.40;;;7.28;;
67869;SDS011;54673;52.262;6.830;2024-02-26T10:50:03;23.55;;;8.73;;
67869;SDS011;54673;52.262;6.830;2024-02-26T10:52:34;22.23;;;8.52;;
67869;SDS011;54673;52.262;6.830;2024-02-26T10:55:02;18.48;;;7.68;;
67869;SDS011;54673;52.262;6.830;2024-02-26T10:57:35;25.30;;;8.60;;
67869;SDS011;54673;52.262;6.830;2024-02-26T11:00:04;8.23;;;3.75;;
67869;SDS011;54673;52.262;6.830;2024-02-26T11:02:32;20.65;;;7.82;;
67869;SDS011;54673;52.262;6.830;2024-02-26T11:05:05;15.27;;;6.72;;
67869;SDS011;54673;52.262;6.830;2024-02-26T11:07:36;11.32;;;5.28;;
67869;SDS011;54673;52.262;6.830;2024-02-26T11:10:03;17.80;;;6.33;;
67869;SDS011;54673;52.262;6.830;2024-02-26T11:12:31;17.65;;;7.28;;
67869;SDS011;54673;52.262;6.830;2024-02-26T11:15:00;16.65;;;5.80;;
67869;SDS011;54673;52.262;6.830;2024-02-26T11:17:27;12.70;;;6.28;;
67869;SDS011;54673;52.262;6.830;2024-02-26T11:19:57;14.50;;;6.40;;
67869;SDS011;54673;52.262;6.830;2024-02-26T11:22:24;14.97;;;6.43;;
67869;SDS011;54673;52.262;6.830;2024-02-26T11:24:51;8.60;;;3.97;;
67869;SDS011;54673;52.262;6.830;2024-02-26T11:27:35;13.02;;;5.78;;
67869;SDS011;54673;52.262;6.830;2024-02-26T11:30:04;13.20;;;5.72;;
67869;SDS011;54673;52.262;6.830;2024-02-26T11:32:35;13.20;;;5.55;;
67869;SDS011;54673;52.262;6.830;2024-02-26T11:35:01;10.50;;;5.30;;
67869;SDS011;54673;52.262;6.830;2024-02-26T11:37:29;14.65;;;5.57;;
67869;SDS011;54673;52.262;6.830;2024-02-26T11:39:55;10.50;;;4.00;;
67869;SDS011;54673;52.262;6.830;2024-02-26T11:42:24;14.95;;;5.45;;
67869;SDS011;54673;52.262;6.830;2024-02-26T11:44:50;9.13;;;4.50;;
67869;SDS011;54673;52.262;6.830;2024-02-26T11:47:20;10.63;;;4.57;;
67869;SDS011;54673;52.262;6.830;2024-02-26T11:49:47;11.75;;;5.22;;
67869;SDS011;54673;52.262;6.830;2024-02-26T11:52:14;10.50;;;5.47;;
67869;SDS011;54673;52.262;6.830;2024-02-26T11:54:44;11.60;;;4.90;;
67869;SDS011;54673;52.262;6.830;2024-02-26T12:02:41;11.27;;;5.22;;
67869;SDS011;54673;52.262;6.830;2024-02-26T12:05:23;9.33;;;4.93;;
67869;SDS011;54673;52.262;6.830;2024-02-26T12:07:59;8.98;;;4.90;;
67869;SDS011;54673;52.262;6.830;2024-02-26T12:10:26;7.63;;;3.47;;
67869;SDS011;54673;52.262;6.830;2024-02-26T12:12:59;6.97;;;2.88;;
67869;SDS011;54673;52.262;6.830;2024-02-26T12:15:33;10.35;;;4.78;;
67869;SDS011;54673;52.262;6.830;2024-02-26T12:18:02;9.40;;;4.23;;
67869;SDS011;54673;52.262;6.830;2024-02-26T12:20:30;6.68;;;2.95;;
67869;SDS011;54673;52.262;6.830;2024-02-26T12:22:56;11.60;;;5.43;;
67869;SDS011;54673;52.262;6.830;2024-02-26T12:25:23;8.85;;;4.40;;
67869;SDS011;54673;52.262;6.830;2024-02-26T12:27:51;8.50;;;4.47;;
67869;SDS011;54673;52.262;6.830;2024-02-26T12:30:17;7.57;;;4.13;;
67869;SDS011;54673;52.262;6.830;2024-02-26T12:32:44;9.43;;;5.10;;
67869;SDS011;54673;52.262;6.830;2024-02-26T12:35:10;7.57;;;3.70;;
67869;SDS011;54673;52.262;6.830;2024-02-26T12:37:35;11.20;;;4.50;;
67869;SDS011;54673;52.262;6.830;2024-02-26T12:40:03;12.32;;;4.70;;
67869;SDS011;54673;52.262;6.830;2024-02-26T12:42:32;8.48;;;4.53;;
67869;SDS011;54673;52.262;6.830;2024-02-26T12:45:04;10.02;;;4.32;;
67869;SDS011;54673;52.262;6.830;2024-02-26T12:47:41;6.90;;;3.23;;
67869;SDS011;54673;52.262;6.830;2024-02-26T12:50:16;11.82;;;4.97;;
67869;SDS011;54673;52.262;6.830;2024-02-26T12:52:46;9.75;;;4.15;;
67869;SDS011;54673;52.262;6.830;2024-02-26T12:55:16;8.60;;;3.35;;
67869;SDS011;54673;52.262;6.830;2024-02-26T12:57:44;6.97;;;4.05;;
67869;SDS011;54673;52.262;6.830;2024-02-26T13:00:12;8.93;;;4.33;;
67869;SDS011;54673;52.262;6.830;2024-02-26T13:02:40;9.00;;;4.35;;
67869;SDS011;54673;52.262;6.830;2024-02-26T13:05:09;10.02;;;4.07;;
67869;SDS011;54673;52.262;6.830;2024-02-26T13:07:42;9.05;;;3.72;;
67869;SDS011;54673;52.262;6.830;2024-02-26T13:10:10;6.60;;;3.80;;
67869;SDS011;54673;52.262;6.830;2024-02-26T13:12:43;8.30;;;3.23;;
67869;SDS011;54673;52.262;6.830;2024-02-26T13:15:09;9.18;;;3.78;;
67869;SDS011;54673;52.262;6.830;2024-02-26T13:17:40;11.27;;;4.65;;
67869;SDS011;54673;52.262;6.830;2024-02-26T13:20:07;7.53;;;4.45;;
67869;SDS011;54673;52.262;6.830;2024-02-26T13:22:34;10.10;;;4.67;;
67869;SDS011;54673;52.262;6.830;2024-02-26T13:25:00;7.35;;;3.53;;
67869;SDS011;54673;52.262;6.830;2024-02-26T13:27:28;6.47;;;3.35;;
67869;SDS011;54673;52.262;6.830;2024-02-26T13:30:09;9.17;;;5.07;;
67869;SDS011;54673;52.262;6.830;2024-02-26T13:32:37;8.00;;;4.28;;
67869;SDS011;54673;52.262;6.830;2024-02-26T13:35:09;7.43;;;4.17;;
67869;SDS011;54673;52.262;6.830;2024-02-26T13:37:37;8.07;;;4.03;;
67869;SDS011;54673;52.262;6.830;2024-02-26T13:40:07;6.78;;;2.28;;
67869;SDS011;54673;52.262;6.830;2024-02-26T13:42:34;7.70;;;3.80;;
67869;SDS011;54673;52.262;6.830;2024-02-26T13:45:00;6.80;;;3.75;;
67869;SDS011;54673;52.262;6.830;2024-02-26T13:47:26;7.13;;;3.33;;
67869;SDS011;54673;52.262;6.830;2024-02-26T13:49:52;7.95;;;3.95;;
67869;SDS011;54673;52.262;6.830;2024-02-26T13:52:17;10.07;;;3.97;;
67869;SDS011;54673;52.262;6.830;2024-02-26T13:54:45;9.15;;;4.43;;
67869;SDS011;54673;52.262;6.830;2024-02-26T13:57:10;8.27;;;4.35;;
67869;SDS011;54673;52.262;6.830;2024-02-26T13:59:36;9.18;;;4.25;;
67869;SDS011;54673;52.262;6.830;2024-02-26T14:02:02;7.33;;;3.90;;
67869;SDS011;54673;52.262;6.830;2024-02-26T14:04:28;9.32;;;3.95;;
67869;SDS011;54673;52.262;6.830;2024-02-26T14:06:53;8.10;;;4.40;;
67869;SDS011;54673;52.262;6.830;2024-02-26T14:09:19;7.80;;;3.95;;
67869;SDS011;54673;52.262;6.830;2024-02-26T14:11:45;6.90;;;3.53;;
67869;SDS011;54673;52.262;6.830;2024-02-26T14:14:11;8.77;;;4.13;;
67869;SDS011;54673;52.262;6.830;2024-02-26T14:16:36;9.70;;;4.07;;
67869;SDS011;54673;52.262;6.830;2024-02-26T14:19:02;6.55;;;3.25;;
67869;SDS011;54673;52.262;6.830;2024-02-26T14:21:28;10.00;;;3.83;;
67869;SDS011;54673;52.262;6.830;2024-02-26T14:23:54;8.80;;;3.70;;
67869;SDS011;54673;52.262;6.830;2024-02-26T14:26:21;7.70;;;3.90;;
67869;SDS011;54673;52.262;6.830;2024-02-26T14:28:48;10.50;;;3.97;;
67869;SDS011;54673;52.262;6.830;2024-02-26T14:31:16;6.07;;;3.10;;
67869;SDS011;54673;52.262;6.830;2024-02-26T14:33:42;8.10;;;4.30;;
67869;SDS011;54673;52.262;6.830;2024-02-26T14:36:08;8.10;;;3.27;;
67869;SDS011;54673;52.262;6.830;2024-02-26T14:38:34;8.95;;;4.18;;
67869;SDS011;54673;52.262;6.830;2024-02-26T14:40:59;9.30;;;4.87;;
67869;SDS011;54673;52.262;6.830;2024-02-26T14:43:25;8.55;;;3.95;;
67869;SDS011;54673;52.262;6.830;2024-02-26T14:45:50;11.23;;;4.97;;